createdAt,value
2022-11-28T00:00:23.449Z,3.53
2022-11-28T00:03:14.204Z,3.52
2022-11-28T00:05:47.023Z,3.49
2022-11-28T00:08:17.045Z,3.45
2022-11-28T00:10:50.173Z,3.40
2022-11-28T00:13:20.016Z,3.35
2022-11-28T00:15:58.504Z,3.31
2022-11-28T00:18:28.948Z,3.13
2022-11-28T00:21:03.472Z,3.27
2022-11-28T00:23:35.495Z,3.22
2022-11-28T00:26:09.733Z,3.16
2022-11-28T00:28:43.484Z,3.12
2022-11-28T00:31:14.152Z,3.06
2022-11-28T00:33:48.522Z,3.03
2022-11-28T00:36:21.660Z,3.01
2022-11-28T00:38:55.471Z,2.95
2022-11-28T00:41:31.068Z,2.92
2022-11-28T00:44:03.484Z,2.91
2022-11-28T00:46:33.367Z,2.90
2022-11-28T00:49:06.470Z,2.91
2022-11-28T00:51:36.590Z,2.84
2022-11-28T00:54:09.547Z,2.85
2022-11-28T00:59:13.250Z,2.74
2022-11-28T01:01:44.647Z,2.69
2022-11-28T01:04:18.935Z,2.68
2022-11-28T01:06:51.044Z,2.68
2022-11-28T01:09:25.276Z,2.70
2022-11-28T01:11:55.257Z,2.73
2022-11-28T01:14:32.274Z,2.77
2022-11-28T01:17:04.025Z,2.67
2022-11-28T01:19:35.983Z,2.92
2022-11-28T01:22:06.490Z,2.98
2022-11-28T01:24:38.276Z,3.05
2022-11-28T01:27:08.206Z,3.07
2022-11-28T01:29:41.246Z,3.10
2022-11-28T01:32:10.830Z,3.10
2022-11-28T01:34:43.496Z,3.10
2022-11-28T01:37:12.933Z,3.11
2022-11-28T01:39:50.310Z,3.09
2022-11-28T01:42:20.760Z,3.06
2022-11-28T01:45:10.253Z,3.12
2022-11-28T01:47:40.006Z,3.14
2022-11-28T01:50:13.996Z,3.18
2022-11-28T01:52:46.845Z,3.18
2022-11-28T01:55:26.344Z,3.15
2022-11-28T01:58:04.341Z,3.17
2022-11-28T02:00:39.072Z,3.15
2022-11-28T02:03:13.130Z,3.11
2022-11-28T02:05:48.327Z,3.12
2022-11-28T02:08:17.823Z,3.09
2022-11-28T02:11:11.112Z,3.06
2022-11-28T02:13:48.265Z,3.06
2022-11-28T02:16:37.438Z,3.09
2022-11-28T02:19:39.940Z,3.04
2022-11-28T02:22:20.306Z,3.02
2022-11-28T02:25:05.056Z,2.96
2022-11-28T02:28:11.736Z,2.94
2022-11-28T02:30:52.475Z,2.90
2022-11-28T02:33:28.592Z,2.88
2022-11-28T02:36:08.877Z,2.89
2022-11-28T02:38:55.613Z,2.87
2022-11-28T02:41:31.490Z,2.83
2022-11-28T02:44:18.464Z,2.82
2022-11-28T02:46:54.383Z,2.79
2022-11-28T02:49:30.578Z,2.78
2022-11-28T02:52:04.380Z,2.77
2022-11-28T02:54:32.867Z,2.76
2022-11-28T02:57:00.874Z,2.73
2022-11-28T02:59:34.412Z,2.74
2022-11-28T03:02:02.969Z,2.78
2022-11-28T03:04:46.209Z,2.74
2022-11-28T03:07:25.664Z,2.72
2022-11-28T03:10:15.028Z,2.69
2022-11-28T03:12:55.054Z,2.69
2022-11-28T03:15:30.973Z,2.67
2022-11-28T03:18:08.933Z,2.69
2022-11-28T03:20:47.679Z,2.69
2022-11-28T03:23:19.190Z,2.69
2022-11-28T03:26:07.469Z,2.72
2022-11-28T03:28:43.654Z,2.72
2022-11-28T03:31:16.208Z,2.71
2022-11-28T03:33:55.205Z,2.73
2022-11-28T03:36:28.973Z,2.74
2022-11-28T03:39:01.700Z,2.73
2022-11-28T03:41:37.025Z,2.65
2022-11-28T03:44:12.799Z,2.68
2022-11-28T03:46:47.159Z,2.67
2022-11-28T03:49:23.253Z,2.67
2022-11-28T03:51:56.250Z,2.64
2022-11-28T03:54:30.160Z,2.60
2022-11-28T03:57:06.349Z,2.36
2022-11-28T03:59:39.417Z,2.52
2022-11-28T04:02:16.922Z,2.47
2022-11-28T04:04:53.510Z,2.47
2022-11-28T04:07:29.816Z,2.47
2022-11-28T04:10:05.202Z,2.43
2022-11-28T04:12:47.000Z,2.42
2022-11-28T04:15:21.059Z,2.41
2022-11-28T04:17:57.003Z,2.38
2022-11-28T04:20:33.428Z,2.32
2022-11-28T04:23:09.219Z,2.37
2022-11-28T04:25:45.126Z,2.39
2022-11-28T04:28:18.749Z,2.40
2022-11-28T04:30:49.237Z,2.42
2022-11-28T04:33:22.764Z,2.44
2022-11-28T04:35:54.593Z,2.44
2022-11-28T04:38:29.453Z,2.44
2022-11-28T04:41:06.448Z,2.47
2022-11-28T04:43:40.324Z,2.45
2022-11-28T04:46:16.067Z,2.44
2022-11-28T04:48:44.877Z,2.41
2022-11-28T04:51:19.404Z,2.40
2022-11-28T04:53:54.026Z,2.43
2022-11-28T04:56:27.697Z,2.43
2022-11-28T04:58:55.668Z,2.23
2022-11-28T05:01:27.958Z,2.40
2022-11-28T05:03:59.150Z,2.38
2022-11-28T05:06:29.582Z,2.40
2022-11-28T05:09:01.416Z,2.39
2022-11-28T05:11:34.406Z,2.37
2022-11-28T05:14:02.494Z,2.34
2022-11-28T05:16:30.811Z,2.31
2022-11-28T05:18:58.934Z,2.30
2022-11-28T05:21:27.117Z,2.30
2022-11-28T05:23:55.378Z,2.29
2022-11-28T05:26:26.168Z,2.30
2022-11-28T05:28:54.945Z,2.29
2022-11-28T05:31:23.244Z,2.28
2022-11-28T05:33:51.772Z,2.30
2022-11-28T05:36:22.399Z,2.28
2022-11-28T05:38:51.018Z,2.26
2022-11-28T05:41:24.649Z,2.27
2022-11-28T05:43:53.595Z,2.27
2022-11-28T05:46:21.684Z,2.26
2022-11-28T05:48:50.148Z,2.26
2022-11-28T05:51:18.497Z,2.28
2022-11-28T05:53:49.033Z,2.27
2022-11-28T05:56:18.742Z,2.29
2022-11-28T05:59:56.314Z,2.28
2022-11-28T06:02:24.832Z,2.29
2022-11-28T06:04:53.176Z,2.30
2022-11-28T06:07:21.697Z,2.28
2022-11-28T06:09:49.720Z,2.28
2022-11-28T06:12:17.973Z,2.30
2022-11-28T06:14:48.468Z,2.30
2022-11-28T06:17:20.248Z,2.29
2022-11-28T06:19:52.952Z,2.32
2022-11-28T06:22:21.176Z,2.30
2022-11-28T06:24:49.176Z,2.31
2022-11-28T06:27:17.409Z,2.33
2022-11-28T06:29:45.450Z,2.34
2022-11-28T06:32:17.681Z,2.39
2022-11-28T06:34:51.326Z,2.40
2022-11-28T06:37:21.599Z,2.40
2022-11-28T06:39:51.394Z,2.41
2022-11-28T06:42:20.021Z,2.40
2022-11-28T06:44:48.156Z,2.39
2022-11-28T06:47:16.773Z,2.39
2022-11-28T06:49:45.265Z,2.37
2022-11-28T06:52:14.756Z,2.37
2022-11-28T06:54:44.056Z,2.37
2022-11-28T06:57:12.634Z,2.39
2022-11-28T06:59:41.246Z,2.40
2022-11-28T07:02:13.033Z,2.43
2022-11-28T07:04:41.499Z,2.45
2022-11-28T07:07:13.671Z,2.51
2022-11-28T07:09:47.889Z,2.51
2022-11-28T07:12:16.198Z,2.48
2022-11-28T07:14:44.398Z,2.51
2022-11-28T07:17:12.355Z,2.49
2022-11-28T07:19:41.101Z,2.51
2022-11-28T07:22:11.336Z,2.52
2022-11-28T07:24:39.843Z,2.53
2022-11-28T07:27:11.496Z,2.54
2022-11-28T07:29:39.822Z,2.58
2022-11-28T07:32:08.330Z,2.65
2022-11-28T07:34:36.739Z,2.68
2022-11-28T07:37:04.732Z,2.63
2022-11-28T07:39:35.765Z,2.68
2022-11-28T07:42:03.752Z,2.70
2022-11-28T07:44:34.766Z,2.63
2022-11-28T07:47:05.634Z,2.73
2022-11-28T07:49:36.317Z,2.76
2022-11-28T07:52:06.670Z,2.80
2022-11-28T07:54:34.895Z,2.80
2022-11-28T07:57:18.200Z,2.84
2022-11-28T07:59:47.809Z,2.88
2022-11-28T08:02:15.955Z,2.93
2022-11-28T08:04:50.405Z,2.91
2022-11-28T08:07:20.135Z,2.91
2022-11-28T08:09:48.457Z,3.00
2022-11-28T08:12:16.428Z,3.01
2022-11-28T08:14:45.220Z,3.09
2022-11-28T08:17:17.683Z,3.12
2022-11-28T08:19:46.066Z,3.12
2022-11-28T08:22:14.075Z,3.16
2022-11-28T08:24:42.585Z,3.22
2022-11-28T08:27:10.680Z,3.23
2022-11-28T08:29:38.918Z,3.31
2022-11-28T08:32:06.970Z,3.30
2022-11-28T08:34:37.113Z,3.34
2022-11-28T08:37:08.518Z,3.40
2022-11-28T08:39:36.801Z,3.49
2022-11-28T08:42:04.921Z,3.52
2022-11-28T08:44:33.889Z,3.62
2022-11-28T08:47:01.905Z,3.65
2022-11-28T08:49:32.923Z,3.58
2022-11-28T08:52:05.637Z,3.54
2022-11-28T08:54:33.883Z,3.61
2022-11-28T08:57:04.371Z,3.71
2022-11-28T08:59:32.884Z,3.75
2022-11-28T09:02:02.913Z,3.76
2022-11-28T09:04:31.043Z,3.87
2022-11-28T09:06:58.988Z,3.80
2022-11-28T09:09:43.178Z,3.90
2022-11-28T09:12:11.339Z,4.06
2022-11-28T09:14:39.876Z,4.14
2022-11-28T09:17:08.355Z,4.20
2022-11-28T09:19:36.416Z,4.11
2022-11-28T09:22:04.919Z,4.23
2022-11-28T09:24:34.371Z,4.34
2022-11-28T09:27:03.875Z,4.28
2022-11-28T09:29:33.940Z,4.42
2022-11-28T09:32:02.125Z,4.59
2022-11-28T09:34:30.173Z,4.52
2022-11-28T09:37:02.152Z,4.57
2022-11-28T09:39:50.240Z,4.54
2022-11-28T09:42:29.870Z,4.57
2022-11-28T09:45:01.546Z,4.66
2022-11-28T09:47:32.842Z,4.52
2022-11-28T09:50:10.795Z,4.57
2022-11-28T09:52:48.382Z,4.60
2022-11-28T09:55:26.281Z,4.53
2022-11-28T09:57:55.301Z,4.44
2022-11-28T10:00:25.790Z,4.59
2022-11-28T10:03:24.315Z,4.66
2022-11-28T10:06:04.681Z,4.78
2022-11-28T10:08:44.084Z,4.88
2022-11-28T10:11:26.186Z,4.91
2022-11-28T10:14:08.929Z,4.86
2022-11-28T10:16:52.952Z,4.76
2022-11-28T10:22:20.415Z,4.91
2022-11-28T10:24:53.179Z,4.99
2022-11-28T10:27:30.659Z,5.01
2022-11-28T10:30:02.972Z,5.18
2022-11-28T10:32:36.384Z,5.25
2022-11-28T10:35:07.952Z,5.18
2022-11-28T10:37:38.592Z,5.21
2022-11-28T10:40:18.193Z,5.35
2022-11-28T10:42:56.846Z,5.20
2022-11-28T10:45:32.815Z,5.36
2022-11-28T10:48:41.823Z,5.44
2022-11-28T10:51:17.052Z,5.56
2022-11-28T10:53:51.902Z,5.38
2022-11-28T10:56:30.729Z,5.40
2022-11-28T11:01:00.327Z,5.25
2022-11-28T11:03:33.866Z,5.35
2022-11-28T11:06:04.385Z,5.33
2022-11-28T11:08:36.795Z,5.29
2022-11-28T11:11:12.202Z,5.36
2022-11-28T11:13:58.295Z,5.23
2022-11-28T11:16:47.210Z,5.06
2022-11-28T11:19:25.566Z,4.72
2022-11-28T11:22:02.727Z,4.66
2022-11-28T11:24:33.767Z,4.62
2022-11-28T11:27:08.317Z,4.43
2022-11-28T11:29:39.081Z,4.48
2022-11-28T11:32:21.877Z,4.41
2022-11-28T11:34:52.180Z,4.47
2022-11-28T11:37:33.248Z,4.33
2022-11-28T11:40:18.525Z,4.21
2022-11-28T11:42:54.720Z,4.24
2022-11-28T11:45:34.176Z,4.11
2022-11-28T11:48:05.232Z,4.54
2022-11-28T11:50:36.917Z,4.52
2022-11-28T11:53:13.816Z,4.50
2022-11-28T11:55:49.900Z,4.51
2022-11-28T11:58:22.998Z,4.60
2022-11-28T12:00:55.133Z,4.70
2022-11-28T12:03:30.980Z,4.65
2022-11-28T12:06:14.240Z,4.42
2022-11-28T12:08:47.683Z,4.57
2022-11-28T12:11:21.046Z,4.64
2022-11-28T12:13:50.999Z,4.58
2022-11-28T12:16:40.870Z,4.57
2022-11-28T12:19:25.767Z,4.69
2022-11-28T12:22:17.222Z,4.75
2022-11-28T12:24:57.049Z,4.67
2022-11-28T12:27:35.452Z,4.74
2022-11-28T12:30:20.890Z,4.80
2022-11-28T12:33:04.456Z,4.76
2022-11-28T12:35:40.835Z,4.78
2022-11-28T12:38:22.819Z,4.78
2022-11-28T12:41:32.160Z,4.86
2022-11-28T12:44:10.395Z,4.85
2022-11-28T12:46:45.663Z,4.85
2022-11-28T12:49:19.175Z,4.79
2022-11-28T12:52:04.957Z,4.76
2022-11-28T12:55:03.177Z,4.79
2022-11-28T12:57:41.188Z,4.85
2022-11-28T13:00:18.520Z,4.86
2022-11-28T13:03:02.382Z,4.85
2022-11-28T13:05:45.998Z,4.88
2022-11-28T13:08:43.302Z,4.98
2022-11-28T13:11:27.741Z,5.04
2022-11-28T13:14:04.429Z,5.01
2022-11-28T13:16:42.220Z,5.12
2022-11-28T13:19:17.285Z,5.16
2022-11-28T13:21:50.601Z,5.07
2022-11-28T13:24:28.676Z,5.11
2022-11-28T13:27:07.130Z,5.22
2022-11-28T13:29:43.333Z,5.16
2022-11-28T13:32:18.497Z,5.22
2022-11-28T13:34:48.009Z,5.10
2022-11-28T13:40:23.358Z,5.32
2022-11-28T13:43:06.391Z,5.39
2022-11-28T13:45:36.922Z,5.29
2022-11-28T13:51:32.063Z,5.31
2022-11-28T13:54:44.964Z,5.27
2022-11-28T13:57:27.908Z,5.35
2022-11-28T14:00:01.558Z,5.26
2022-11-28T14:02:44.299Z,5.31
2022-11-28T14:05:26.838Z,5.44
2022-11-28T14:07:56.423Z,5.54
2022-11-28T14:10:35.605Z,5.59
2022-11-28T14:13:23.121Z,5.39
2022-11-28T14:16:03.868Z,5.46
2022-11-28T14:18:59.967Z,5.49
2022-11-28T14:21:42.943Z,5.59
2022-11-28T14:24:22.494Z,5.54
2022-11-28T14:26:59.349Z,5.43
2022-11-28T14:29:35.159Z,5.40
2022-11-28T14:34:52.250Z,5.43
2022-11-28T14:37:50.072Z,5.36
2022-11-28T14:41:09.020Z,5.25
2022-11-28T14:43:43.936Z,5.23
2022-11-28T14:46:31.988Z,5.22
2022-11-28T14:49:22.919Z,5.22
2022-11-28T14:52:40.888Z,5.19
2022-11-28T14:55:22.270Z,5.17
2022-11-28T14:57:57.275Z,5.17
2022-11-28T15:00:28.474Z,5.17
2022-11-28T15:03:17.521Z,5.21
2022-11-28T15:05:49.866Z,5.18
2022-11-28T15:08:45.441Z,5.11
2022-11-28T15:11:35.247Z,5.10
2022-11-28T15:14:21.869Z,5.11
2022-11-28T15:16:54.188Z,5.08
2022-11-28T15:19:29.929Z,5.06
2022-11-28T15:21:58.433Z,5.04
2022-11-28T15:24:30.493Z,5.04
2022-11-28T15:27:00.193Z,5.02
2022-11-28T15:29:30.028Z,4.99
2022-11-28T15:32:01.214Z,4.98
2022-11-28T15:34:33.166Z,4.97
2022-11-28T15:37:06.422Z,4.81
2022-11-28T15:39:39.509Z,4.96
2022-11-28T15:42:21.178Z,4.94
2022-11-28T15:44:55.813Z,4.95
2022-11-28T15:47:24.309Z,4.93
2022-11-28T15:50:06.264Z,4.91
2022-11-28T15:52:34.265Z,4.93
2022-11-28T15:55:02.960Z,4.90
2022-11-28T15:57:32.628Z,4.87
2022-11-28T16:02:00.618Z,4.85
2022-11-28T16:04:31.965Z,4.84
2022-11-28T16:07:03.256Z,4.81
2022-11-28T16:09:35.048Z,4.83
2022-11-28T16:12:12.133Z,4.81
2022-11-28T16:14:45.904Z,4.82
2022-11-28T16:17:21.343Z,4.83
2022-11-28T16:19:52.376Z,4.83
2022-11-28T16:22:28.276Z,4.82
2022-11-28T16:24:57.042Z,4.83
2022-11-28T16:27:30.286Z,4.83
2022-11-28T16:29:58.615Z,4.80
2022-11-28T16:32:40.875Z,4.88
2022-11-28T16:35:13.588Z,4.91
2022-11-28T16:37:41.871Z,4.93
2022-11-28T16:40:17.250Z,4.94
2022-11-28T16:42:54.062Z,4.96
2022-11-28T16:45:28.790Z,4.96
2022-11-28T16:48:06.945Z,4.98
2022-11-28T16:50:35.493Z,4.98
2022-11-28T16:53:03.987Z,4.99
2022-11-28T16:55:46.270Z,4.98
2022-11-28T16:58:23.370Z,4.98
2022-11-28T17:01:03.281Z,5.00
2022-11-28T17:03:45.828Z,5.01
2022-11-28T17:06:22.615Z,5.01
2022-11-28T17:08:51.125Z,5.01
2022-11-28T17:11:23.011Z,5.02
2022-11-28T17:13:51.865Z,4.94
2022-11-28T17:16:21.987Z,5.05
2022-11-28T17:18:52.072Z,5.05
2022-11-28T17:21:32.227Z,5.04
2022-11-28T17:24:00.791Z,5.07
2022-11-28T17:26:28.890Z,5.02
2022-11-28T17:28:59.901Z,5.03
2022-11-28T17:31:30.114Z,5.04
2022-11-28T17:33:59.840Z,5.07
2022-11-28T17:36:28.157Z,5.05
2022-11-28T17:38:58.796Z,5.04
2022-11-28T17:41:30.453Z,5.03
2022-11-28T17:44:01.337Z,5.02
2022-11-28T17:46:31.633Z,5.03
2022-11-28T17:49:04.219Z,5.02
2022-11-28T17:51:32.556Z,5.04
2022-11-28T17:54:01.118Z,5.04
2022-11-28T17:56:29.133Z,5.08
2022-11-28T17:58:59.765Z,5.00
2022-11-28T18:01:31.189Z,5.09
2022-11-28T18:04:04.739Z,5.05
2022-11-28T18:06:35.940Z,5.11
2022-11-28T18:09:11.636Z,5.11
2022-11-28T18:11:41.295Z,5.11
2022-11-28T18:14:09.951Z,5.12
2022-11-28T18:16:40.128Z,5.11
2022-11-28T18:19:10.235Z,5.14
2022-11-28T18:21:38.895Z,5.14
2022-11-28T18:24:07.556Z,5.16
2022-11-28T18:26:36.014Z,5.13
2022-11-28T18:29:04.389Z,5.13
2022-11-28T18:31:34.150Z,5.14
2022-11-28T18:34:04.774Z,5.17
2022-11-28T18:36:38.003Z,5.19
2022-11-28T18:39:10.152Z,5.23
2022-11-28T18:41:41.085Z,5.23
2022-11-28T18:44:11.755Z,5.22
2022-11-28T18:46:44.809Z,5.24
2022-11-28T18:49:15.132Z,5.27
2022-11-28T18:51:44.959Z,5.26
2022-11-28T18:54:20.806Z,5.24
2022-11-28T18:56:54.862Z,5.25
2022-11-28T18:59:24.187Z,5.25
2022-11-28T19:01:53.373Z,5.23
2022-11-28T19:04:22.568Z,5.22
2022-11-28T19:06:52.482Z,5.24
2022-11-28T19:09:22.474Z,5.25
2022-11-28T19:11:50.967Z,5.24
2022-11-28T19:14:21.232Z,5.23
2022-11-28T19:16:50.346Z,5.21
2022-11-28T19:19:18.942Z,5.19
2022-11-28T19:21:51.208Z,5.16
2022-11-28T19:24:21.562Z,5.16
2022-11-28T19:26:51.540Z,5.12
2022-11-28T19:29:19.751Z,5.13
2022-11-28T19:31:48.369Z,5.11
2022-11-28T19:34:18.670Z,5.09
2022-11-28T19:36:48.746Z,5.05
2022-11-28T19:39:23.279Z,5.03
2022-11-28T19:41:53.353Z,5.01
2022-11-28T19:44:26.067Z,5.01
2022-11-28T19:46:54.603Z,5.02
2022-11-28T19:49:24.416Z,5.03
2022-11-28T19:51:54.363Z,5.04
2022-11-28T19:54:25.968Z,5.05
2022-11-28T19:56:56.383Z,5.06
2022-11-28T19:59:31.725Z,5.08
2022-11-28T20:01:59.998Z,5.09
2022-11-28T20:04:28.551Z,5.12
2022-11-28T20:06:59.250Z,5.13
2022-11-28T20:09:31.920Z,5.16
2022-11-28T20:12:00.186Z,5.14
2022-11-28T20:14:32.332Z,5.19
2022-11-28T20:17:01.370Z,5.20
2022-11-28T20:19:31.995Z,5.21
2022-11-28T20:22:02.478Z,5.21
2022-11-28T20:24:35.435Z,5.20
2022-11-28T20:27:03.876Z,5.21
2022-11-28T20:29:34.835Z,5.20
2022-11-28T20:32:04.375Z,5.23
2022-11-28T20:34:35.371Z,5.23
2022-11-28T20:37:03.794Z,5.22
2022-11-28T20:39:32.497Z,5.22
2022-11-28T20:42:02.035Z,5.23
2022-11-28T20:44:30.077Z,5.27
2022-11-28T20:47:01.058Z,5.27
2022-11-28T20:49:29.060Z,5.26
2022-11-28T20:51:59.393Z,5.30
2022-11-28T20:54:28.614Z,5.29
2022-11-28T21:02:57.818Z,5.23
2022-11-28T21:05:25.822Z,5.24
2022-11-28T21:07:53.991Z,5.24
2022-11-28T21:10:21.958Z,5.24
2022-11-28T21:12:52.849Z,5.25
2022-11-28T21:15:28.387Z,5.23
2022-11-28T21:17:57.967Z,5.16
2022-11-28T21:20:25.987Z,5.27
2022-11-28T21:22:54.510Z,5.26
2022-11-28T21:25:23.407Z,5.22
2022-11-28T21:27:54.259Z,5.23
2022-11-28T21:30:22.488Z,5.22
2022-11-28T21:32:51.277Z,5.23
2022-11-28T21:35:23.074Z,5.23
2022-11-28T21:37:51.405Z,5.24
2022-11-28T21:40:24.012Z,5.23
2022-11-28T21:42:52.419Z,5.24
2022-11-28T21:45:20.666Z,5.25
2022-11-28T21:47:49.153Z,5.24
2022-11-28T21:50:18.009Z,5.26
2022-11-28T21:52:50.094Z,5.26
2022-11-28T21:55:18.499Z,5.26
2022-11-28T21:57:49.386Z,5.28
2022-11-28T22:00:45.520Z,5.28
2022-11-28T22:03:14.324Z,5.27
2022-11-28T22:05:46.410Z,5.28
2022-11-28T22:08:16.158Z,5.27
2022-11-28T22:10:44.246Z,5.28
2022-11-28T22:13:13.444Z,5.27
2022-11-28T22:15:44.368Z,5.26
2022-11-28T22:18:12.886Z,5.18
2022-11-28T22:20:43.135Z,5.26
2022-11-28T22:23:18.715Z,5.27
2022-11-28T22:25:53.638Z,5.26
2022-11-28T22:28:22.313Z,5.25
2022-11-28T22:30:53.100Z,5.29
2022-11-28T22:33:22.080Z,5.31
2022-11-28T22:35:50.366Z,5.32
2022-11-28T22:38:20.142Z,5.14
2022-11-28T22:40:48.868Z,5.35
2022-11-28T22:43:17.305Z,5.36
2022-11-28T22:45:45.429Z,5.35
2022-11-28T22:48:13.738Z,5.36
2022-11-28T22:50:42.132Z,5.32
2022-11-28T22:53:10.523Z,5.38
2022-11-28T22:55:40.290Z,5.38
2022-11-28T22:58:09.730Z,5.37
2022-11-28T23:00:40.411Z,5.40
2022-11-28T23:03:10.660Z,5.39
2022-11-28T23:05:40.012Z,5.40
2022-11-28T23:08:10.817Z,5.41
2022-11-28T23:10:40.467Z,5.42
2022-11-28T23:13:09.222Z,5.41
2022-11-28T23:15:42.764Z,5.40
2022-11-28T23:18:12.760Z,5.41
2022-11-28T23:20:40.946Z,5.42
2022-11-28T23:23:11.091Z,5.43
2022-11-28T23:25:40.828Z,5.42
2022-11-28T23:28:08.947Z,5.41
2022-11-28T23:30:37.219Z,5.42
2022-11-28T23:33:05.595Z,5.44
2022-11-28T23:35:33.711Z,5.43
2022-11-28T23:38:04.224Z,5.44
2022-11-28T23:40:32.434Z,5.46
2022-11-28T23:43:04.265Z,5.45
2022-11-28T23:45:32.479Z,5.37
2022-11-28T23:48:00.723Z,5.43
2022-11-28T23:50:32.056Z,5.41
2022-11-28T23:53:00.222Z,5.41
2022-11-28T23:55:28.357Z,5.37
2022-11-28T23:57:56.597Z,5.37
